sensor_id;sensor_type;location;lat;lon;timestamp;P1;durP1;ratioP1;P2;durP2;ratioP2
6679;SDS011;3376;42.664;23.346;2023-02-15T00:01:46;39.73;;;25.30;;
6679;SDS011;3376;42.664;23.346;2023-02-15T00:04:16;35.87;;;25.27;;
6679;SDS011;3376;42.664;23.346;2023-02-15T00:06:44;34.87;;;23.43;;
6679;SDS011;3376;42.664;23.346;2023-02-15T00:09:11;38.23;;;26.20;;
6679;SDS011;3376;42.664;23.346;2023-02-15T00:11:38;35.23;;;24.77;;
6679;SDS011;3376;42.664;23.346;2023-02-15T00:14:15;38.07;;;24.77;;
6679;SDS011;3376;42.664;23.346;2023-02-15T00:16:43;39.03;;;26.20;;
6679;SDS011;3376;42.664;23.346;2023-02-15T00:19:11;40.40;;;26.47;;
6679;SDS011;3376;42.664;23.346;2023-02-15T00:21:40;35.93;;;24.87;;
6679;SDS011;3376;42.664;23.346;2023-02-15T00:24:07;38.43;;;25.73;;
6679;SDS011;3376;42.664;23.346;2023-02-15T00:26:37;38.60;;;26.57;;
6679;SDS011;3376;42.664;23.346;2023-02-15T00:29:05;33.53;;;24.03;;
6679;SDS011;3376;42.664;23.346;2023-02-15T00:31:33;36.33;;;23.73;;
6679;SDS011;3376;42.664;23.346;2023-02-15T00:34:01;40.43;;;26.00;;
6679;SDS011;3376;42.664;23.346;2023-02-15T00:36:28;37.33;;;24.47;;
6679;SDS011;3376;42.664;23.346;2023-02-15T00:38:56;41.20;;;24.60;;
6679;SDS011;3376;42.664;23.346;2023-02-15T00:41:23;42.20;;;25.17;;
6679;SDS011;3376;42.664;23.346;2023-02-15T00:43:50;35.37;;;24.80;;
6679;SDS011;3376;42.664;23.346;2023-02-15T00:46:16;34.13;;;24.30;;
6679;SDS011;3376;42.664;23.346;2023-02-15T00:48:43;34.90;;;23.57;;
6679;SDS011;3376;42.664;23.346;2023-02-15T00:51:10;37.23;;;23.53;;
6679;SDS011;3376;42.664;23.346;2023-02-15T00:53:37;37.10;;;24.07;;
6679;SDS011;3376;42.664;23.346;2023-02-15T00:56:05;42.17;;;25.17;;
6679;SDS011;3376;42.664;23.346;2023-02-15T00:58:31;33.40;;;23.80;;
6679;SDS011;3376;42.664;23.346;2023-02-15T01:01:02;33.00;;;22.37;;
6679;SDS011;3376;42.664;23.346;2023-02-15T01:03:30;35.27;;;24.10;;
6679;SDS011;3376;42.664;23.346;2023-02-15T01:05:57;35.17;;;24.23;;
6679;SDS011;3376;42.664;23.346;2023-02-15T01:08:24;37.17;;;24.73;;
6679;SDS011;3376;42.664;23.346;2023-02-15T01:10:51;33.63;;;24.90;;
6679;SDS011;3376;42.664;23.346;2023-02-15T01:13:19;34.33;;;23.37;;
6679;SDS011;3376;42.664;23.346;2023-02-15T01:15:51;35.23;;;24.03;;
6679;SDS011;3376;42.664;23.346;2023-02-15T01:18:19;33.77;;;23.17;;
6679;SDS011;3376;42.664;23.346;2023-02-15T01:20:46;35.70;;;23.43;;
6679;SDS011;3376;42.664;23.346;2023-02-15T01:23:12;31.27;;;22.63;;
6679;SDS011;3376;42.664;23.346;2023-02-15T01:25:39;31.80;;;22.33;;
6679;SDS011;3376;42.664;23.346;2023-02-15T01:28:06;28.80;;;19.97;;
6679;SDS011;3376;42.664;23.346;2023-02-15T01:30:34;32.13;;;21.63;;
6679;SDS011;3376;42.664;23.346;2023-02-15T01:33:01;32.23;;;23.27;;
6679;SDS011;3376;42.664;23.346;2023-02-15T01:35:28;40.40;;;25.50;;
6679;SDS011;3376;42.664;23.346;2023-02-15T01:37:55;32.00;;;21.60;;
6679;SDS011;3376;42.664;23.346;2023-02-15T01:40:23;33.87;;;23.00;;
6679;SDS011;3376;42.664;23.346;2023-02-15T01:42:50;32.87;;;23.17;;
6679;SDS011;3376;42.664;23.346;2023-02-15T01:45:19;33.00;;;22.43;;
6679;SDS011;3376;42.664;23.346;2023-02-15T01:47:51;33.63;;;24.17;;
6679;SDS011;3376;42.664;23.346;2023-02-15T01:50:22;31.70;;;22.90;;
6679;SDS011;3376;42.664;23.346;2023-02-15T01:52:55;31.20;;;22.37;;
6679;SDS011;3376;42.664;23.346;2023-02-15T01:55:29;31.97;;;23.13;;
6679;SDS011;3376;42.664;23.346;2023-02-15T01:57:59;34.83;;;23.63;;
6679;SDS011;3376;42.664;23.346;2023-02-15T02:00:27;31.33;;;22.97;;
6679;SDS011;3376;42.664;23.346;2023-02-15T02:02:55;34.97;;;22.60;;
6679;SDS011;3376;42.664;23.346;2023-02-15T02:05:23;29.80;;;21.43;;
6679;SDS011;3376;42.664;23.346;2023-02-15T02:07:51;30.80;;;22.53;;
6679;SDS011;3376;42.664;23.346;2023-02-15T02:10:20;34.07;;;22.33;;
6679;SDS011;3376;42.664;23.346;2023-02-15T02:12:49;29.17;;;21.37;;
6679;SDS011;3376;42.664;23.346;2023-02-15T02:15:18;29.10;;;21.27;;
6679;SDS011;3376;42.664;23.346;2023-02-15T02:17:54;37.03;;;23.73;;
6679;SDS011;3376;42.664;23.346;2023-02-15T02:20:41;32.33;;;21.90;;
6679;SDS011;3376;42.664;23.346;2023-02-15T02:23:21;32.90;;;23.30;;
6679;SDS011;3376;42.664;23.346;2023-02-15T02:26:03;29.90;;;21.80;;
6679;SDS011;3376;42.664;23.346;2023-02-15T02:29:04;30.47;;;21.00;;
6679;SDS011;3376;42.664;23.346;2023-02-15T02:32:03;36.17;;;22.67;;
6679;SDS011;3376;42.664;23.346;2023-02-15T02:34:50;32.73;;;21.83;;
6679;SDS011;3376;42.664;23.346;2023-02-15T02:37:23;32.80;;;22.10;;
6679;SDS011;3376;42.664;23.346;2023-02-15T02:39:55;30.90;;;22.27;;
6679;SDS011;3376;42.664;23.346;2023-02-15T02:42:33;31.07;;;22.83;;
6679;SDS011;3376;42.664;23.346;2023-02-15T02:45:05;28.67;;;21.10;;
6679;SDS011;3376;42.664;23.346;2023-02-15T02:47:35;31.13;;;21.90;;
6679;SDS011;3376;42.664;23.346;2023-02-15T02:50:11;34.23;;;23.93;;
6679;SDS011;3376;42.664;23.346;2023-02-15T02:52:41;32.60;;;21.77;;
6679;SDS011;3376;42.664;23.346;2023-02-15T02:55:10;32.17;;;19.30;;
6679;SDS011;3376;42.664;23.346;2023-02-15T02:57:42;33.17;;;22.17;;
6679;SDS011;3376;42.664;23.346;2023-02-15T03:00:16;29.77;;;22.10;;
6679;SDS011;3376;42.664;23.346;2023-02-15T03:02:45;31.50;;;20.33;;
6679;SDS011;3376;42.664;23.346;2023-02-15T03:05:16;31.57;;;22.23;;
6679;SDS011;3376;42.664;23.346;2023-02-15T03:07:48;30.70;;;22.00;;
6679;SDS011;3376;42.664;23.346;2023-02-15T03:10:16;33.77;;;20.53;;
6679;SDS011;3376;42.664;23.346;2023-02-15T03:12:47;32.77;;;21.70;;
6679;SDS011;3376;42.664;23.346;2023-02-15T03:15:16;27.23;;;21.27;;
6679;SDS011;3376;42.664;23.346;2023-02-15T03:17:46;31.23;;;22.30;;
6679;SDS011;3376;42.664;23.346;2023-02-15T03:20:18;27.37;;;21.47;;
6679;SDS011;3376;42.664;23.346;2023-02-15T03:22:51;29.60;;;20.87;;
6679;SDS011;3376;42.664;23.346;2023-02-15T03:25:22;26.47;;;21.13;;
6679;SDS011;3376;42.664;23.346;2023-02-15T03:27:52;30.07;;;21.53;;
6679;SDS011;3376;42.664;23.346;2023-02-15T03:30:21;30.33;;;20.90;;
6679;SDS011;3376;42.664;23.346;2023-02-15T03:32:50;30.03;;;22.17;;
6679;SDS011;3376;42.664;23.346;2023-02-15T03:35:19;30.33;;;20.80;;
6679;SDS011;3376;42.664;23.346;2023-02-15T03:37:52;34.63;;;21.73;;
6679;SDS011;3376;42.664;23.346;2023-02-15T03:40:24;28.37;;;21.47;;
6679;SDS011;3376;42.664;23.346;2023-02-15T03:43:12;31.83;;;21.00;;
6679;SDS011;3376;42.664;23.346;2023-02-15T03:45:44;30.20;;;20.60;;
6679;SDS011;3376;42.664;23.346;2023-02-15T03:48:21;27.40;;;19.53;;
6679;SDS011;3376;42.664;23.346;2023-02-15T03:50:53;28.97;;;20.67;;
6679;SDS011;3376;42.664;23.346;2023-02-15T03:53:40;23.20;;;19.80;;
6679;SDS011;3376;42.664;23.346;2023-02-15T03:56:09;26.40;;;20.37;;
6679;SDS011;3376;42.664;23.346;2023-02-15T03:58:36;33.23;;;20.83;;
6679;SDS011;3376;42.664;23.346;2023-02-15T04:01:22;27.70;;;18.43;;
6679;SDS011;3376;42.664;23.346;2023-02-15T04:04:10;24.23;;;19.23;;
6679;SDS011;3376;42.664;23.346;2023-02-15T04:06:45;29.40;;;19.40;;
6679;SDS011;3376;42.664;23.346;2023-02-15T04:09:12;30.80;;;20.70;;
6679;SDS011;3376;42.664;23.346;2023-02-15T04:11:56;26.70;;;19.50;;
6679;SDS011;3376;42.664;23.346;2023-02-15T04:14:23;29.20;;;20.00;;
6679;SDS011;3376;42.664;23.346;2023-02-15T04:17:07;28.43;;;20.20;;
6679;SDS011;3376;42.664;23.346;2023-02-15T04:19:35;24.60;;;19.17;;
6679;SDS011;3376;42.664;23.346;2023-02-15T04:22:21;27.60;;;20.43;;
6679;SDS011;3376;42.664;23.346;2023-02-15T04:25:06;24.67;;;19.93;;
6679;SDS011;3376;42.664;23.346;2023-02-15T04:27:36;29.47;;;20.63;;
6679;SDS011;3376;42.664;23.346;2023-02-15T04:30:03;28.80;;;20.70;;
6679;SDS011;3376;42.664;23.346;2023-02-15T04:32:32;28.57;;;20.37;;
6679;SDS011;3376;42.664;23.346;2023-02-15T04:34:59;32.43;;;21.23;;
6679;SDS011;3376;42.664;23.346;2023-02-15T04:37:27;26.83;;;19.93;;
6679;SDS011;3376;42.664;23.346;2023-02-15T04:39:54;26.57;;;20.17;;
6679;SDS011;3376;42.664;23.346;2023-02-15T04:42:23;29.53;;;18.20;;
6679;SDS011;3376;42.664;23.346;2023-02-15T04:44:50;28.10;;;20.87;;
6679;SDS011;3376;42.664;23.346;2023-02-15T04:47:17;29.90;;;20.60;;
6679;SDS011;3376;42.664;23.346;2023-02-15T04:49:44;26.47;;;19.87;;
6679;SDS011;3376;42.664;23.346;2023-02-15T04:52:11;28.17;;;19.97;;
6679;SDS011;3376;42.664;23.346;2023-02-15T04:54:39;30.10;;;20.93;;
6679;SDS011;3376;42.664;23.346;2023-02-15T04:57:06;27.87;;;21.30;;
6679;SDS011;3376;42.664;23.346;2023-02-15T04:59:33;26.77;;;20.90;;
6679;SDS011;3376;42.664;23.346;2023-02-15T05:01:59;26.40;;;20.00;;
6679;SDS011;3376;42.664;23.346;2023-02-15T05:04:26;29.80;;;21.43;;
6679;SDS011;3376;42.664;23.346;2023-02-15T05:06:53;27.40;;;20.03;;
6679;SDS011;3376;42.664;23.346;2023-02-15T05:09:20;29.07;;;20.17;;
6679;SDS011;3376;42.664;23.346;2023-02-15T05:11:48;29.20;;;20.57;;
6679;SDS011;3376;42.664;23.346;2023-02-15T05:14:15;27.27;;;20.00;;
6679;SDS011;3376;42.664;23.346;2023-02-15T05:16:42;24.03;;;19.10;;
6679;SDS011;3376;42.664;23.346;2023-02-15T05:19:08;28.70;;;20.23;;
6679;SDS011;3376;42.664;23.346;2023-02-15T05:21:35;30.80;;;19.90;;
6679;SDS011;3376;42.664;23.346;2023-02-15T05:24:02;28.47;;;20.07;;
6679;SDS011;3376;42.664;23.346;2023-02-15T05:26:50;26.23;;;20.13;;
6679;SDS011;3376;42.664;23.346;2023-02-15T05:29:35;28.97;;;20.07;;
6679;SDS011;3376;42.664;23.346;2023-02-15T05:32:02;27.63;;;20.70;;
6679;SDS011;3376;42.664;23.346;2023-02-15T05:34:29;24.17;;;19.03;;
6679;SDS011;3376;42.664;23.346;2023-02-15T05:36:56;28.20;;;21.57;;
6679;SDS011;3376;42.664;23.346;2023-02-15T05:39:22;30.50;;;21.73;;
6679;SDS011;3376;42.664;23.346;2023-02-15T05:41:50;28.37;;;20.40;;
6679;SDS011;3376;42.664;23.346;2023-02-15T05:44:17;28.20;;;19.90;;
6679;SDS011;3376;42.664;23.346;2023-02-15T05:46:44;26.37;;;19.67;;
6679;SDS011;3376;42.664;23.346;2023-02-15T05:49:11;27.20;;;19.77;;
6679;SDS011;3376;42.664;23.346;2023-02-15T05:51:37;28.53;;;19.87;;
6679;SDS011;3376;42.664;23.346;2023-02-15T05:54:04;29.67;;;20.73;;
6679;SDS011;3376;42.664;23.346;2023-02-15T05:56:31;25.97;;;19.77;;
6679;SDS011;3376;42.664;23.346;2023-02-15T05:58:59;26.30;;;18.97;;
6679;SDS011;3376;42.664;23.346;2023-02-15T06:01:26;26.97;;;19.73;;
6679;SDS011;3376;42.664;23.346;2023-02-15T06:03:52;26.30;;;19.80;;
6679;SDS011;3376;42.664;23.346;2023-02-15T06:06:20;24.70;;;20.07;;
6679;SDS011;3376;42.664;23.346;2023-02-15T06:08:47;25.53;;;19.20;;
6679;SDS011;3376;42.664;23.346;2023-02-15T06:11:14;25.77;;;19.37;;
6679;SDS011;3376;42.664;23.346;2023-02-15T06:13:41;25.40;;;19.03;;
6679;SDS011;3376;42.664;23.346;2023-02-15T06:16:09;26.13;;;19.07;;
6679;SDS011;3376;42.664;23.346;2023-02-15T06:18:36;27.30;;;19.50;;
6679;SDS011;3376;42.664;23.346;2023-02-15T06:21:02;23.70;;;18.57;;
6679;SDS011;3376;42.664;23.346;2023-02-15T06:23:29;27.07;;;19.93;;
6679;SDS011;3376;42.664;23.346;2023-02-15T06:25:56;25.57;;;20.07;;
6679;SDS011;3376;42.664;23.346;2023-02-15T06:28:23;28.77;;;20.90;;
6679;SDS011;3376;42.664;23.346;2023-02-15T06:30:50;22.90;;;18.13;;
6679;SDS011;3376;42.664;23.346;2023-02-15T06:33:18;22.43;;;18.37;;
6679;SDS011;3376;42.664;23.346;2023-02-15T06:35:45;26.53;;;19.63;;
6679;SDS011;3376;42.664;23.346;2023-02-15T06:38:12;24.43;;;18.70;;
6679;SDS011;3376;42.664;23.346;2023-02-15T06:40:39;28.27;;;19.37;;
6679;SDS011;3376;42.664;23.346;2023-02-15T06:43:05;25.57;;;18.33;;
6679;SDS011;3376;42.664;23.346;2023-02-15T06:45:32;27.63;;;20.40;;
6679;SDS011;3376;42.664;23.346;2023-02-15T06:47:59;25.17;;;18.97;;
6679;SDS011;3376;42.664;23.346;2023-02-15T06:50:27;21.67;;;17.70;;
6679;SDS011;3376;42.664;23.346;2023-02-15T06:52:55;26.57;;;19.27;;
6679;SDS011;3376;42.664;23.346;2023-02-15T06:55:22;24.87;;;17.90;;
6679;SDS011;3376;42.664;23.346;2023-02-15T06:57:49;23.87;;;18.30;;
6679;SDS011;3376;42.664;23.346;2023-02-15T07:00:16;23.07;;;17.60;;
6679;SDS011;3376;42.664;23.346;2023-02-15T07:02:44;22.77;;;17.97;;
6679;SDS011;3376;42.664;23.346;2023-02-15T07:05:10;21.73;;;17.77;;
6679;SDS011;3376;42.664;23.346;2023-02-15T07:07:39;19.00;;;17.10;;
6679;SDS011;3376;42.664;23.346;2023-02-15T07:10:06;22.23;;;17.93;;
6679;SDS011;3376;42.664;23.346;2023-02-15T07:12:33;27.00;;;17.13;;
6679;SDS011;3376;42.664;23.346;2023-02-15T07:15:07;19.03;;;15.63;;
6679;SDS011;3376;42.664;23.346;2023-02-15T07:17:35;18.97;;;16.90;;
6679;SDS011;3376;42.664;23.346;2023-02-15T07:20:03;21.07;;;17.23;;
6679;SDS011;3376;42.664;23.346;2023-02-15T07:22:33;17.53;;;15.47;;
6679;SDS011;3376;42.664;23.346;2023-02-15T07:25:02;19.03;;;16.20;;
6679;SDS011;3376;42.664;23.346;2023-02-15T07:27:30;19.33;;;16.57;;
6679;SDS011;3376;42.664;23.346;2023-02-15T07:29:57;19.90;;;16.87;;
6679;SDS011;3376;42.664;23.346;2023-02-15T07:32:26;17.80;;;15.90;;
6679;SDS011;3376;42.664;23.346;2023-02-15T07:34:54;18.00;;;16.10;;
6679;SDS011;3376;42.664;23.346;2023-02-15T07:37:20;19.30;;;16.50;;
6679;SDS011;3376;42.664;23.346;2023-02-15T07:39:47;16.30;;;14.60;;
6679;SDS011;3376;42.664;23.346;2023-02-15T07:42:15;18.50;;;15.57;;
6679;SDS011;3376;42.664;23.346;2023-02-15T07:44:42;17.37;;;15.80;;
6679;SDS011;3376;42.664;23.346;2023-02-15T07:47:09;20.27;;;15.50;;
6679;SDS011;3376;42.664;23.346;2023-02-15T07:49:37;17.63;;;15.80;;
6679;SDS011;3376;42.664;23.346;2023-02-15T07:52:04;21.67;;;15.80;;
6679;SDS011;3376;42.664;23.346;2023-02-15T07:54:30;17.33;;;15.63;;
6679;SDS011;3376;42.664;23.346;2023-02-15T07:56:57;18.90;;;17.00;;
6679;SDS011;3376;42.664;23.346;2023-02-15T07:59:25;17.93;;;15.93;;
6679;SDS011;3376;42.664;23.346;2023-02-15T08:01:52;17.90;;;16.13;;
6679;SDS011;3376;42.664;23.346;2023-02-15T08:04:21;17.97;;;16.10;;
6679;SDS011;3376;42.664;23.346;2023-02-15T08:06:47;21.13;;;16.80;;
6679;SDS011;3376;42.664;23.346;2023-02-15T08:09:18;17.97;;;15.57;;
6679;SDS011;3376;42.664;23.346;2023-02-15T08:11:46;19.40;;;16.23;;
6679;SDS011;3376;42.664;23.346;2023-02-15T08:14:14;16.63;;;14.90;;
6679;SDS011;3376;42.664;23.346;2023-02-15T08:16:44;19.57;;;15.00;;
6679;SDS011;3376;42.664;23.346;2023-02-15T08:19:12;17.60;;;15.70;;
6679;SDS011;3376;42.664;23.346;2023-02-15T08:21:42;16.97;;;15.17;;
6679;SDS011;3376;42.664;23.346;2023-02-15T08:24:10;17.37;;;15.73;;
6679;SDS011;3376;42.664;23.346;2023-02-15T08:26:38;18.50;;;15.67;;
6679;SDS011;3376;42.664;23.346;2023-02-15T08:29:06;18.37;;;15.33;;
6679;SDS011;3376;42.664;23.346;2023-02-15T08:31:34;23.93;;;16.77;;
6679;SDS011;3376;42.664;23.346;2023-02-15T08:34:04;17.73;;;15.87;;
6679;SDS011;3376;42.664;23.346;2023-02-15T08:36:31;19.43;;;14.77;;
6679;SDS011;3376;42.664;23.346;2023-02-15T08:38:58;16.03;;;14.40;;
6679;SDS011;3376;42.664;23.346;2023-02-15T08:41:27;17.03;;;15.13;;
6679;SDS011;3376;42.664;23.346;2023-02-15T08:43:56;21.13;;;16.70;;
6679;SDS011;3376;42.664;23.346;2023-02-15T08:46:26;19.63;;;16.40;;
6679;SDS011;3376;42.664;23.346;2023-02-15T08:48:54;24.13;;;17.07;;
6679;SDS011;3376;42.664;23.346;2023-02-15T08:51:23;19.87;;;15.10;;
6679;SDS011;3376;42.664;23.346;2023-02-15T08:53:52;19.27;;;15.13;;
6679;SDS011;3376;42.664;23.346;2023-02-15T08:56:21;19.63;;;13.83;;
6679;SDS011;3376;42.664;23.346;2023-02-15T08:58:50;17.23;;;15.37;;
6679;SDS011;3376;42.664;23.346;2023-02-15T09:01:18;18.60;;;15.50;;
6679;SDS011;3376;42.664;23.346;2023-02-15T09:03:47;15.33;;;13.67;;
6679;SDS011;3376;42.664;23.346;2023-02-15T09:06:18;20.53;;;14.67;;
6679;SDS011;3376;42.664;23.346;2023-02-15T09:08:46;16.47;;;14.50;;
6679;SDS011;3376;42.664;23.346;2023-02-15T09:11:14;16.90;;;15.10;;
6679;SDS011;3376;42.664;23.346;2023-02-15T09:13:47;14.37;;;12.97;;
6679;SDS011;3376;42.664;23.346;2023-02-15T09:16:15;17.40;;;15.30;;
6679;SDS011;3376;42.664;23.346;2023-02-15T09:18:42;16.03;;;14.60;;
6679;SDS011;3376;42.664;23.346;2023-02-15T09:21:10;15.50;;;13.90;;
6679;SDS011;3376;42.664;23.346;2023-02-15T09:23:39;17.53;;;15.50;;
6679;SDS011;3376;42.664;23.346;2023-02-15T09:26:08;16.37;;;14.47;;
6679;SDS011;3376;42.664;23.346;2023-02-15T09:28:37;17.83;;;14.53;;
6679;SDS011;3376;42.664;23.346;2023-02-15T09:31:08;15.40;;;13.97;;
6679;SDS011;3376;42.664;23.346;2023-02-15T09:33:36;19.73;;;14.73;;
6679;SDS011;3376;42.664;23.346;2023-02-15T09:36:04;16.43;;;14.67;;
6679;SDS011;3376;42.664;23.346;2023-02-15T09:38:32;14.77;;;13.30;;
6679;SDS011;3376;42.664;23.346;2023-02-15T09:41:05;15.80;;;14.30;;
6679;SDS011;3376;42.664;23.346;2023-02-15T09:43:49;14.73;;;13.23;;
6679;SDS011;3376;42.664;23.346;2023-02-15T09:46:28;15.67;;;13.47;;
6679;SDS011;3376;42.664;23.346;2023-02-15T09:49:09;15.87;;;14.27;;
6679;SDS011;3376;42.664;23.346;2023-02-15T09:51:46;17.70;;;15.30;;
6679;SDS011;3376;42.664;23.346;2023-02-15T09:54:33;18.23;;;15.27;;
6679;SDS011;3376;42.664;23.346;2023-02-15T09:57:13;18.30;;;14.33;;
6679;SDS011;3376;42.664;23.346;2023-02-15T09:59:52;16.53;;;14.80;;
6679;SDS011;3376;42.664;23.346;2023-02-15T10:02:30;21.17;;;15.57;;
6679;SDS011;3376;42.664;23.346;2023-02-15T10:05:13;17.37;;;15.63;;
6679;SDS011;3376;42.664;23.346;2023-02-15T10:10:47;19.20;;;16.43;;
6679;SDS011;3376;42.664;23.346;2023-02-15T10:13:27;17.17;;;15.53;;
6679;SDS011;3376;42.664;23.346;2023-02-15T10:16:07;16.60;;;15.10;;
6679;SDS011;3376;42.664;23.346;2023-02-15T10:18:51;16.40;;;13.60;;
6679;SDS011;3376;42.664;23.346;2023-02-15T10:21:29;16.13;;;14.43;;
6679;SDS011;3376;42.664;23.346;2023-02-15T10:24:10;15.23;;;13.83;;
6679;SDS011;3376;42.664;23.346;2023-02-15T10:26:59;17.77;;;15.63;;
6679;SDS011;3376;42.664;23.346;2023-02-15T10:29:34;17.73;;;15.87;;
6679;SDS011;3376;42.664;23.346;2023-02-15T10:32:05;18.47;;;16.67;;
6679;SDS011;3376;42.664;23.346;2023-02-15T10:34:46;18.50;;;16.50;;
6679;SDS011;3376;42.664;23.346;2023-02-15T10:37:21;24.73;;;15.87;;
6679;SDS011;3376;42.664;23.346;2023-02-15T10:40:20;18.03;;;16.07;;
6679;SDS011;3376;42.664;23.346;2023-02-15T10:43:02;20.70;;;17.80;;
6679;SDS011;3376;42.664;23.346;2023-02-15T10:45:46;19.47;;;16.30;;
6679;SDS011;3376;42.664;23.346;2023-02-15T10:48:23;18.33;;;15.87;;
6679;SDS011;3376;42.664;23.346;2023-02-15T10:51:01;19.30;;;16.97;;
6679;SDS011;3376;42.664;23.346;2023-02-15T10:53:34;19.97;;;17.03;;
6679;SDS011;3376;42.664;23.346;2023-02-15T10:56:16;17.83;;;16.03;;
6679;SDS011;3376;42.664;23.346;2023-02-15T10:58:50;19.80;;;15.93;;
6679;SDS011;3376;42.664;23.346;2023-02-15T11:01:24;18.57;;;16.80;;
6679;SDS011;3376;42.664;23.346;2023-02-15T11:04:04;17.97;;;16.33;;
6679;SDS011;3376;42.664;23.346;2023-02-15T11:06:48;19.83;;;17.80;;
6679;SDS011;3376;42.664;23.346;2023-02-15T11:09:17;17.10;;;15.70;;
6679;SDS011;3376;42.664;23.346;2023-02-15T11:11:48;18.10;;;16.33;;
6679;SDS011;3376;42.664;23.346;2023-02-15T11:14:20;17.97;;;16.47;;
6679;SDS011;3376;42.664;23.346;2023-02-15T11:16:59;18.93;;;17.23;;
6679;SDS011;3376;42.664;23.346;2023-02-15T11:19:31;18.00;;;16.50;;
6679;SDS011;3376;42.664;23.346;2023-02-15T11:22:01;18.43;;;16.33;;
6679;SDS011;3376;42.664;23.346;2023-02-15T11:24:33;19.77;;;17.87;;
6679;SDS011;3376;42.664;23.346;2023-02-15T11:27:05;18.27;;;16.57;;
6679;SDS011;3376;42.664;23.346;2023-02-15T11:29:48;19.90;;;18.03;;
6679;SDS011;3376;42.664;23.346;2023-02-15T11:32:23;19.17;;;17.37;;
6679;SDS011;3376;42.664;23.346;2023-02-15T11:34:54;18.83;;;17.03;;
6679;SDS011;3376;42.664;23.346;2023-02-15T11:37:27;18.67;;;16.87;;
6679;SDS011;3376;42.664;23.346;2023-02-15T11:39:59;19.00;;;17.23;;
6679;SDS011;3376;42.664;23.346;2023-02-15T11:42:28;19.47;;;17.53;;
6679;SDS011;3376;42.664;23.346;2023-02-15T11:44:58;19.87;;;17.87;;
6679;SDS011;3376;42.664;23.346;2023-02-15T11:47:30;20.87;;;18.87;;
6679;SDS011;3376;42.664;23.346;2023-02-15T11:49:56;20.00;;;18.03;;
6679;SDS011;3376;42.664;23.346;2023-02-15T11:52:24;28.17;;;19.47;;
6679;SDS011;3376;42.664;23.346;2023-02-15T11:54:51;20.20;;;18.23;;
6679;SDS011;3376;42.664;23.346;2023-02-15T11:57:19;19.90;;;17.90;;
6679;SDS011;3376;42.664;23.346;2023-02-15T11:59:53;21.30;;;19.20;;
6679;SDS011;3376;42.664;23.346;2023-02-15T12:02:25;20.70;;;18.50;;
6679;SDS011;3376;42.664;23.346;2023-02-15T12:04:57;20.57;;;18.50;;
6679;SDS011;3376;42.664;23.346;2023-02-15T12:07:28;20.37;;;18.03;;
6679;SDS011;3376;42.664;23.346;2023-02-15T12:10:00;22.07;;;19.87;;
6679;SDS011;3376;42.664;23.346;2023-02-15T12:12:32;20.97;;;18.70;;
6679;SDS011;3376;42.664;23.346;2023-02-15T12:15:01;21.43;;;19.17;;
6679;SDS011;3376;42.664;23.346;2023-02-15T12:17:30;19.27;;;17.47;;
6679;SDS011;3376;42.664;23.346;2023-02-15T12:20:02;20.60;;;18.73;;
6679;SDS011;3376;42.664;23.346;2023-02-15T12:22:34;19.70;;;17.70;;
6679;SDS011;3376;42.664;23.346;2023-02-15T12:25:04;20.10;;;18.10;;
6679;SDS011;3376;42.664;23.346;2023-02-15T12:27:48;19.20;;;17.50;;
6679;SDS011;3376;42.664;23.346;2023-02-15T12:30:17;21.60;;;17.67;;
6679;SDS011;3376;42.664;23.346;2023-02-15T12:32:48;19.80;;;18.03;;
6679;SDS011;3376;42.664;23.346;2023-02-15T12:35:21;20.73;;;18.57;;
6679;SDS011;3376;42.664;23.346;2023-02-15T12:37:54;20.23;;;17.73;;
6679;SDS011;3376;42.664;23.346;2023-02-15T12:40:24;21.50;;;19.30;;
6679;SDS011;3376;42.664;23.346;2023-02-15T12:42:52;20.10;;;18.20;;
6679;SDS011;3376;42.664;23.346;2023-02-15T12:45:21;20.37;;;18.17;;
6679;SDS011;3376;42.664;23.346;2023-02-15T12:50:51;22.57;;;20.33;;
6679;SDS011;3376;42.664;23.346;2023-02-15T12:53:21;21.33;;;19.20;;
6679;SDS011;3376;42.664;23.346;2023-02-15T12:55:49;22.37;;;19.97;;
6679;SDS011;3376;42.664;23.346;2023-02-15T12:58:19;21.43;;;19.30;;
6679;SDS011;3376;42.664;23.346;2023-02-15T13:00:48;20.77;;;18.83;;
6679;SDS011;3376;42.664;23.346;2023-02-15T13:03:29;21.30;;;19.40;;
6679;SDS011;3376;42.664;23.346;2023-02-15T13:05:57;20.63;;;18.53;;
6679;SDS011;3376;42.664;23.346;2023-02-15T13:08:27;20.57;;;18.77;;
6679;SDS011;3376;42.664;23.346;2023-02-15T13:10:56;19.30;;;17.70;;
6679;SDS011;3376;42.664;23.346;2023-02-15T13:13:26;21.53;;;19.63;;
6679;SDS011;3376;42.664;23.346;2023-02-15T13:15:55;20.23;;;18.23;;
6679;SDS011;3376;42.664;23.346;2023-02-15T13:18:28;21.90;;;19.87;;
6679;SDS011;3376;42.664;23.346;2023-02-15T13:21:00;22.03;;;19.73;;
6679;SDS011;3376;42.664;23.346;2023-02-15T13:23:32;19.63;;;17.83;;
6679;SDS011;3376;42.664;23.346;2023-02-15T13:26:02;19.97;;;17.97;;
6679;SDS011;3376;42.664;23.346;2023-02-15T13:28:34;21.83;;;19.83;;
6679;SDS011;3376;42.664;23.346;2023-02-15T13:31:08;21.80;;;19.50;;
6679;SDS011;3376;42.664;23.346;2023-02-15T13:33:39;21.53;;;19.33;;
6679;SDS011;3376;42.664;23.346;2023-02-15T13:36:14;20.53;;;18.43;;
6679;SDS011;3376;42.664;23.346;2023-02-15T13:38:49;22.23;;;18.93;;
6679;SDS011;3376;42.664;23.346;2023-02-15T13:41:25;24.87;;;19.83;;
6679;SDS011;3376;42.664;23.346;2023-02-15T13:43:59;21.90;;;19.53;;
6679;SDS011;3376;42.664;23.346;2023-02-15T13:46:40;21.03;;;18.93;;
6679;SDS011;3376;42.664;23.346;2023-02-15T13:49:17;23.67;;;20.17;;
6679;SDS011;3376;42.664;23.346;2023-02-15T13:52:00;19.83;;;18.03;;
6679;SDS011;3376;42.664;23.346;2023-02-15T13:54:43;20.33;;;18.30;;
6679;SDS011;3376;42.664;23.346;2023-02-15T14:00:24;20.93;;;18.97;;
6679;SDS011;3376;42.664;23.346;2023-02-15T14:03:00;21.73;;;19.57;;
6679;SDS011;3376;42.664;23.346;2023-02-15T14:05:43;22.93;;;20.00;;
6679;SDS011;3376;42.664;23.346;2023-02-15T14:08:21;21.07;;;18.87;;
6679;SDS011;3376;42.664;23.346;2023-02-15T14:11:05;22.23;;;19.83;;
6679;SDS011;3376;42.664;23.346;2023-02-15T14:13:48;22.27;;;19.90;;
6679;SDS011;3376;42.664;23.346;2023-02-15T14:16:24;21.67;;;19.73;;
6679;SDS011;3376;42.664;23.346;2023-02-15T14:18:59;20.60;;;18.70;;
6679;SDS011;3376;42.664;23.346;2023-02-15T14:21:39;21.50;;;19.50;;
6679;SDS011;3376;42.664;23.346;2023-02-15T14:24:18;21.13;;;18.90;;
6679;SDS011;3376;42.664;23.346;2023-02-15T14:26:55;21.70;;;19.40;;
6679;SDS011;3376;42.664;23.346;2023-02-15T14:29:35;21.80;;;19.63;;
6679;SDS011;3376;42.664;23.346;2023-02-15T14:32:10;25.40;;;20.50;;
6679;SDS011;3376;42.664;23.346;2023-02-15T14:34:42;21.73;;;19.47;;
6679;SDS011;3376;42.664;23.346;2023-02-15T14:37:12;22.63;;;19.93;;
6679;SDS011;3376;42.664;23.346;2023-02-15T14:39:47;24.80;;;20.17;;
6679;SDS011;3376;42.664;23.346;2023-02-15T14:42:39;23.13;;;19.73;;
6679;SDS011;3376;42.664;23.346;2023-02-15T14:45:15;22.20;;;20.07;;
6679;SDS011;3376;42.664;23.346;2023-02-15T14:47:47;21.53;;;19.17;;
6679;SDS011;3376;42.664;23.346;2023-02-15T14:53:16;22.70;;;20.33;;
6679;SDS011;3376;42.664;23.346;2023-02-15T14:59:00;23.43;;;20.63;;
6679;SDS011;3376;42.664;23.346;2023-02-15T15:01:50;23.23;;;20.93;;
6679;SDS011;3376;42.664;23.346;2023-02-15T15:04:22;25.13;;;21.03;;
6679;SDS011;3376;42.664;23.346;2023-02-15T15:07:07;23.20;;;19.83;;
6679;SDS011;3376;42.664;23.346;2023-02-15T15:09:40;29.17;;;21.17;;
6679;SDS011;3376;42.664;23.346;2023-02-15T15:12:14;27.53;;;21.83;;
6679;SDS011;3376;42.664;23.346;2023-02-15T15:15:03;24.57;;;21.03;;